Grand Junction Regional Airport Grand Junction US
ICAO: KGJT
IATA: GJT
Category: Medium
Scheduled Services: Yes

Elevation: 4858 ft
TransAlt. 18000 ft.

Airport Communications:
DENVER APP/DEP:119.7
VFR ADVSY SVC:118.1
ATIS:118.55
CTAF:118.1
GND:121.7
DENVER RDO:122.6
GRAND JUNCTION TWR:118.1
UNICOM:122.95

KGJT Zoom In..

Runways:

(A) RW 04 length 5502 ft width 75 ft
---- / hdg 41

(B) RW 11 length 10501 ft width 150 ft
ILS 110.30 / hdg 112

(C) RW 22 length 5502 ft width 75 ft
---- / hdg 221

(D) RW 29 length 10501 ft width 150 ft
---- / hdg 292

Location; KGJT
Day. 23 / Time. 14.53 Zulu
* Altimeter: 30.36
* Temperature: -09° c. -15.8°f.
* Wind from: 090° Speed 04 kn.
Dewpoint: -11° c.
Visibility: 10 Statute Miles.
Clouds: Clear (automated report).

KGJT 231453Z 09004KT 10SM CLR M09/M11 A3036 RMK AO2 SLP332 T10941106 53009


Wind From 090°
Speed 04 kn.

YouTube Music Video
 
jpsmedia.com for Web Design  worldairports.se 2018   terms of use